Time;durP1;ratioP1;P1;durP2;ratioP2;P2;SDS_P1;SDS_P2;PMS_P1;PMS_P2;Temp;Humidity;BMP_temperature;BMP_pressure;BME280_temperature;BME280_humidity;BME280_pressure;Samples;Min_cycle;Max_cycle;Signal;HPM_P1;HPM_P2
2022/11/15 00:01:17;;;;;;;3.73;3.27;;;;;;;15.13;55.54;98553.00;6975577;28;20313;-79
2022/11/15 00:04:40;;;;;;;3.67;3.37;;;;;;;14.90;55.38;98500.63;6976077;28;20205;-79
2022/11/15 00:08:01;;;;;;;4.40;3.53;;;;;;;15.13;54.85;98522.28;6974083;28;20305;-79
2022/11/15 00:11:23;;;;;;;5.80;3.40;;;;;;;15.13;54.82;98536.69;6975103;28;20375;-79
2022/11/15 00:14:44;;;;;;;3.37;2.93;;;;;;;15.07;55.14;98534.94;6974823;28;20325;-80
2022/11/15 00:18:07;;;;;;;3.43;3.10;;;;;;;14.92;55.78;98536.53;6974844;28;20255;-79
2022/11/15 00:21:29;;;;;;;3.63;3.33;;;;;;;14.99;55.94;98540.72;6975364;28;20298;-79
2022/11/15 00:24:51;;;;;;;3.93;3.00;;;;;;;15.10;54.96;98526.28;6973882;28;20356;-79
2022/11/15 00:28:13;;;;;;;3.67;3.37;;;;;;;15.22;54.87;98542.56;6973690;28;20352;-78
2022/11/15 00:31:34;;;;;;;4.93;2.60;;;;;;;15.21;54.39;98538.22;6974254;28;20300;-79
2022/11/15 00:34:56;;;;;;;4.80;3.50;;;;;;;15.19;54.38;98524.88;6971617;28;20303;-79
2022/11/15 00:38:19;;;;;;;7.40;3.23;;;;;;;15.12;54.94;98543.19;6973660;28;20548;-80
2022/11/15 00:41:40;;;;;;;4.70;3.60;;;;;;;15.02;55.45;98540.25;6974157;28;20297;-79
2022/11/15 00:45:02;;;;;;;3.67;3.37;;;;;;;15.14;55.19;98535.63;6973112;28;20623;-79
2022/11/15 00:48:23;;;;;;;4.17;3.20;;;;;;;15.16;54.66;98535.41;6973400;28;20691;-79
2022/11/15 00:51:45;;;;;;;3.87;3.30;;;;;;;15.06;54.55;98511.56;6973248;28;20793;-79
2022/11/15 00:55:09;;;;;;;3.80;3.40;;;;;;;15.28;54.38;98528.03;6972850;28;20254;-79
2022/11/15 00:58:30;;;;;;;5.80;3.00;;;;;;;15.15;54.67;98523.69;6973496;28;20293;-79
2022/11/15 01:01:52;;;;;;;4.07;3.00;;;;;;;15.17;54.61;98515.31;6972627;28;20637;-79
2022/11/15 01:05:13;;;;;;;3.30;3.00;;;;;;;15.11;54.65;98519.78;6972831;28;20437;-79
2022/11/15 01:08:35;;;;;;;4.57;3.00;;;;;;;15.06;55.30;98508.88;6973772;28;20371;-79
2022/11/15 01:11:58;;;;;;;5.40;3.20;;;;;;;14.91;55.92;98504.97;6973473;28;20632;-79
2022/11/15 01:15:19;;;;;;;4.20;3.10;;;;;;;14.78;56.74;98497.94;6972673;28;20344;-79
2022/11/15 01:18:41;;;;;;;3.97;3.47;;;;;;;14.65;56.57;98494.66;6973893;28;20736;-79
2022/11/15 01:22:03;;;;;;;5.60;3.00;;;;;;;14.55;57.28;98489.00;6973771;28;20343;-79
2022/11/15 01:25:24;;;;;;;6.17;3.93;;;;;;;14.41;57.55;98487.63;6975411;28;20261;-79
2022/11/15 01:28:47;;;;;;;4.60;3.47;;;;;;;14.27;58.04;98492.44;6975279;28;20261;-79
2022/11/15 01:32:08;;;;;;;4.83;3.50;;;;;;;14.32;58.09;98491.72;6975986;28;20305;-79
2022/11/15 01:35:30;;;;;;;3.93;2.90;;;;;;;14.54;57.36;98488.19;6986409;28;20230;-79
2022/11/15 01:38:54;;;;;;;3.73;3.43;;;;;;;14.44;57.11;98485.25;6984738;28;20259;-79
2022/11/15 01:42:15;;;;;;;4.40;3.27;;;;;;;14.19;57.40;98484.69;6973918;28;20206;-79
2022/11/15 01:45:39;;;;;;;4.10;3.17;;;;;;;14.20;57.28;98485.47;6973642;28;20233;-79
2022/11/15 01:49:03;;;;;;;4.17;3.50;;;;;;;14.10;57.30;98485.22;6973971;28;20214;-79
2022/11/15 01:52:26;;;;;;;5.40;3.60;;;;;;;13.82;57.96;98488.63;6973804;28;20296;-78
2022/11/15 01:55:48;;;;;;;4.17;3.57;;;;;;;13.52;58.87;98474.28;6972932;28;20318;-79
2022/11/15 01:59:11;;;;;;;5.23;3.20;;;;;;;13.02;60.30;98469.41;6973083;28;20340;-79
2022/11/15 02:02:34;;;;;;;5.53;3.50;;;;;;;13.22;60.40;98475.38;6973186;28;20210;-78
2022/11/15 02:05:56;;;;;;;6.43;3.57;;;;;;;13.22;60.13;98468.06;6973165;28;20303;-81
2022/11/15 02:09:17;;;;;;;4.57;3.40;;;;;;;13.47;59.36;98471.47;6981415;28;20343;-78
2022/11/15 02:12:39;;;;;;;4.33;3.27;;;;;;;13.06;59.88;98457.06;6979569;28;20270;-79
2022/11/15 02:16:06;;;;;;;3.60;3.30;;;;;;;12.87;61.05;98447.31;6978628;28;20249;-81
2022/11/15 02:20:01;;;;;;;3.37;3.07;;;;;;;13.08;60.22;98447.66;6980923;28;20258;-81
2022/11/15 02:23:51;;;;;;;8.00;3.27;;;;;;;13.23;59.35;98450.75;6964008;28;20296;-81
2022/11/15 02:27:36;;;;;;;3.13;2.90;;;;;;;12.96;59.74;98449.50;6980118;28;20317;-81
2022/11/15 02:31:05;;;;;;;3.73;3.13;;;;;;;12.47;60.52;98438.88;6979177;28;20704;-81
2022/11/15 02:34:30;;;;;;;3.63;3.23;;;;;;;12.82;60.20;98436.34;6978495;28;20202;-80
2022/11/15 02:37:56;;;;;;;5.13;3.50;;;;;;;12.63;60.56;98437.41;6979514;28;20227;-81
2022/11/15 02:41:21;;;;;;;3.33;3.00;;;;;;;12.76;60.83;98435.34;6980369;28;20218;-81
2022/11/15 02:44:45;;;;;;;6.97;3.10;;;;;;;13.10;59.59;98428.50;6983715;28;20206;-81
2022/11/15 02:48:08;;;;;;;5.60;2.67;;;;;;;13.02;59.27;98434.22;6981399;28;20279;-81
2022/11/15 02:51:30;;;;;;;3.40;2.80;;;;;;;12.97;59.58;98412.41;6978801;28;20359;-81
2022/11/15 02:54:55;;;;;;;4.83;2.97;;;;;;;13.08;59.14;98414.34;6978747;28;20625;-81
2022/11/15 02:58:32;;;;;;;3.70;3.00;;;;;;;12.78;60.23;98422.44;6978056;28;20203;-81
2022/11/15 03:02:04;;;;;;;4.00;3.57;;;;;;;12.66;60.91;98423.44;6976986;28;20210;-81
2022/11/15 03:05:35;;;;;;;6.40;3.70;;;;;;;12.54;61.06;98428.78;6976980;28;20260;-81
2022/11/15 03:09:05;;;;;;;8.30;3.60;;;;;;;12.67;60.63;98417.81;6977811;28;20236;-81
2022/11/15 03:12:29;;;;;;;4.83;3.20;;;;;;;12.65;60.90;98421.78;6977587;28;20214;-81
2022/11/15 03:15:56;;;;;;;5.30;3.47;;;;;;;12.50;61.16;98418.63;6977154;28;20363;-81
2022/11/15 03:19:21;;;;;;;3.50;3.20;;;;;;;12.05;61.84;98406.47;6976010;28;20214;-80
2022/11/15 03:22:47;;;;;;;4.17;3.77;;;;;;;12.63;61.13;98416.59;6977472;28;20210;-81
2022/11/15 03:26:10;;;;;;;5.03;3.30;;;;;;;12.85;60.24;98414.22;6976800;28;20364;-81
2022/11/15 03:29:34;;;;;;;3.70;2.90;;;;;;;13.08;59.05;98398.09;6976640;28;20685;-81
2022/11/15 03:32:57;;;;;;;3.80;2.80;;;;;;;12.76;59.73;98407.50;6975877;28;20297;-81
2022/11/15 03:36:19;;;;;;;3.57;3.00;;;;;;;12.82;59.62;98404.72;6974252;28;20363;-81
2022/11/15 03:39:42;;;;;;;3.60;3.13;;;;;;;12.70;59.57;98394.88;6976899;28;20239;-81
2022/11/15 03:43:10;;;;;;;4.00;3.40;;;;;;;12.66;59.61;98397.22;6976409;28;20244;-81
2022/11/15 03:46:34;;;;;;;6.90;3.43;;;;;;;12.63;59.96;98372.50;6976382;28;20603;-81
2022/11/15 03:49:59;;;;;;;6.10;3.40;;;;;;;12.63;60.07;98380.63;6977046;28;20352;-81
2022/11/15 03:53:20;;;;;;;3.97;3.43;;;;;;;12.57;60.11;98395.88;6977063;28;20821;-80
2022/11/15 03:56:43;;;;;;;3.40;3.10;;;;;;;12.42;60.78;98386.50;6975958;28;20364;-81
2022/11/15 04:00:06;;;;;;;3.57;3.27;;;;;;;12.38;60.87;98390.69;6976954;28;20234;-80
2022/11/15 04:03:27;;;;;;;3.73;3.30;;;;;;;12.46;60.46;98382.31;6976412;28;20262;-81
2022/11/15 04:06:49;;;;;;;6.40;3.23;;;;;;;12.18;61.01;98365.78;6976599;28;20312;-81
2022/11/15 04:10:11;;;;;;;3.13;2.93;;;;;;;12.06;61.52;98373.84;6977245;28;20321;-81
2022/11/15 04:13:34;;;;;;;4.83;3.13;;;;;;;12.27;60.93;98367.97;6976703;28;20226;-81
2022/11/15 04:16:56;;;;;;;4.53;3.43;;;;;;;12.54;60.50;98380.13;6977116;28;20241;-81
2022/11/15 04:24:13;;;;;;;5.53;3.87;;;;;;;12.31;60.83;98374.59;6977107;28;20182;-81
2022/11/15 04:27:34;;;;;;;5.20;3.23;;;;;;;12.29;60.83;98378.56;6976403;28;20342;-81
2022/11/15 04:30:57;;;;;;;4.53;3.07;;;;;;;12.00;60.32;98360.41;6977874;28;20289;-81
2022/11/15 04:34:19;;;;;;;4.60;3.67;;;;;;;11.78;61.94;98367.28;6977581;28;20293;-82
2022/11/15 04:37:40;;;;;;;4.80;3.17;;;;;;;12.08;61.09;98369.03;6981487;28;20276;-82
2022/11/15 04:41:02;;;;;;;5.97;3.40;;;;;;;11.89;60.89;98340.38;6989818;28;20206;-82
2022/11/15 04:44:24;;;;;;;4.03;3.40;;;;;;;12.07;61.09;98370.09;6979967;28;20268;-83
2022/11/15 04:47:47;;;;;;;5.80;4.37;;;;;;;11.86;61.07;98367.81;6974980;28;20260;-83
2022/11/15 04:51:09;;;;;;;4.07;3.67;;;;;;;11.77;61.42;98373.72;6975176;28;20320;-83
2022/11/15 04:54:30;;;;;;;6.90;4.23;;;;;;;11.81;61.06;98364.94;6975096;28;20707;-83
2022/11/15 04:57:59;;;;;;;6.23;3.83;;;;;;;11.99;61.02;98345.25;6975274;28;20317;-83
2022/11/15 05:01:20;;;;;;;4.37;3.73;;;;;;;11.95;61.08;98346.72;6976449;28;20218;-83
2022/11/15 05:04:43;;;;;;;5.33;4.30;;;;;;;11.67;61.50;98331.03;7002053;28;20263;-83
2022/11/15 05:08:05;;;;;;;4.83;4.43;;;;;;;11.65;62.71;98338.53;7004440;28;20317;-83
2022/11/15 05:11:27;;;;;;;5.33;4.30;;;;;;;11.96;61.74;98343.81;7004551;28;20252;-83
2022/11/15 05:14:49;;;;;;;5.23;3.70;;;;;;;11.93;61.20;98311.03;7004293;28;20209;-83
2022/11/15 05:18:10;;;;;;;3.83;3.53;;;;;;;11.94;60.60;98337.81;7004958;28;20780;-83
2022/11/15 05:21:34;;;;;;;4.03;3.63;;;;;;;11.60;61.69;98340.25;7005005;28;20293;-83
2022/11/15 05:24:55;;;;;;;4.30;3.57;;;;;;;11.45;62.75;98331.66;7005138;28;20256;-83
2022/11/15 05:28:19;;;;;;;5.03;3.50;;;;;;;11.88;62.27;98340.56;7008489;28;20206;-83
2022/11/15 05:31:42;;;;;;;5.17;3.67;;;;;;;11.22;62.15;98247.78;6996271;28;20271;-83
2022/11/15 05:35:06;;;;;;;4.20;3.80;;;;;;;11.78;62.50;98334.88;6999218;28;20210;-83
2022/11/15 05:38:29;;;;;;;3.93;3.53;;;;;;;11.67;62.85;98320.22;7005701;28;20194;-83
2022/11/15 05:41:53;;;;;;;4.57;3.57;;;;;;;11.63;62.21;98289.31;6997949;28;20202;-83
2022/11/15 05:45:15;;;;;;;4.57;4.10;;;;;;;11.84;62.22;98342.91;7005447;28;20275;-83
2022/11/15 05:48:37;;;;;;;4.87;4.27;;;;;;;12.06;61.87;98327.06;7005973;28;20231;-83
2022/11/15 05:51:59;;;;;;;4.70;4.20;;;;;;;12.13;61.29;98331.34;7004706;28;20232;-83
2022/11/15 05:55:22;;;;;;;5.07;3.80;;;;;;;12.09;60.99;98322.03;7005175;28;20297;-83
2022/11/15 05:58:43;;;;;;;6.00;4.33;;;;;;;11.97;61.08;98325.72;7005948;28;20267;-83
2022/11/15 06:02:05;;;;;;;3.87;3.57;;;;;;;11.88;61.57;98309.00;7005467;28;20781;-85
2022/11/15 06:05:26;;;;;;;4.17;3.77;;;;;;;12.06;61.73;98324.38;7014668;28;20238;-84
2022/11/15 06:08:48;;;;;;;6.43;3.63;;;;;;;11.78;61.02;98283.56;7031372;28;20295;-84
2022/11/15 06:12:11;;;;;;;6.10;4.03;;;;;;;12.10;61.02;98326.38;7032187;28;20225;-84
2022/11/15 06:15:34;;;;;;;5.33;3.60;;;;;;;11.84;61.03;98313.19;7025296;28;20257;-84
2022/11/15 06:18:55;;;;;;;6.33;4.33;;;;;;;12.11;60.90;98324.53;7006554;28;20212;-83
2022/11/15 06:22:17;;;;;;;5.20;4.40;;;;;;;11.67;61.71;98311.28;7006295;28;20210;-83
2022/11/15 06:25:38;;;;;;;7.13;4.30;;;;;;;11.50;62.03;98285.88;7005479;28;20247;-83
2022/11/15 06:29:03;;;;;;;4.73;4.17;;;;;;;11.77;61.41;98319.72;7006345;28;20766;-82
2022/11/15 06:32:25;;;;;;;6.50;5.47;;;;;;;11.80;61.03;98303.06;7005637;28;20257;-83
2022/11/15 06:35:47;;;;;;;6.50;4.87;;;;;;;11.64;61.99;98319.84;7004126;28;20816;-83
2022/11/15 06:39:09;;;;;;;5.10;4.60;;;;;;;11.78;61.79;98330.28;7006411;28;20254;-83
2022/11/15 06:42:30;;;;;;;10.60;5.20;;;;;;;11.99;60.89;98334.44;7007498;28;20282;-85
2022/11/15 06:45:53;;;;;;;7.60;4.80;;;;;;;11.86;61.17;98326.47;7004588;28;20282;-85
2022/11/15 06:49:15;;;;;;;6.20;4.87;;;;;;;11.73;61.36;98329.31;7004489;28;20237;-84
2022/11/15 06:52:36;;;;;;;6.93;5.17;;;;;;;11.82;61.58;98318.00;7004227;28;20267;-85
2022/11/15 06:55:59;;;;;;;6.73;5.07;;;;;;;11.97;61.03;98331.09;7008075;28;20642;-85
2022/11/15 06:59:21;;;;;;;6.47;5.13;;;;;;;11.86;61.10;98304.88;7009057;28;20202;-84
2022/11/15 07:02:44;;;;;;;6.10;5.20;;;;;;;11.85;60.92;98322.09;7008394;28;20289;-85
2022/11/15 07:06:07;;;;;;;8.17;5.70;;;;;;;11.67;61.05;98314.00;7010003;28;20271;-83
2022/11/15 07:09:28;;;;;;;8.53;5.67;;;;;;;11.10;62.64;98323.22;7010648;28;20259;-83
2022/11/15 07:12:50;;;;;;;7.20;6.13;;;;;;;11.61;62.06;98331.09;7009673;28;20221;-83
2022/11/15 07:16:12;;;;;;;8.07;6.43;;;;;;;11.49;62.81;98330.97;7013384;28;20222;-82
2022/11/15 07:19:35;;;;;;;8.73;6.00;;;;;;;11.78;62.29;98337.56;7005929;28;20292;-85
2022/11/15 07:23:00;;;;;;;6.93;6.23;;;;;;;12.01;61.63;98324.22;7007590;28;20284;-83
2022/11/15 07:26:22;;;;;;;7.20;5.90;;;;;;;12.18;61.06;98333.38;7007607;28;20711;-84
2022/11/15 07:29:43;;;;;;;7.70;6.63;;;;;;;12.37;60.98;98335.00;7009344;28;20236;-85
2022/11/15 07:33:05;;;;;;;6.40;5.50;;;;;;;12.16;61.60;98335.47;7008437;28;20253;-81
2022/11/15 07:36:28;;;;;;;7.67;5.97;;;;;;;12.49;60.94;98330.47;7006580;28;20257;-82
2022/11/15 07:39:49;;;;;;;6.63;5.60;;;;;;;12.20;61.42;98344.75;7004173;28;20280;-78
2022/11/15 07:43:11;;;;;;;5.57;4.67;;;;;;;12.63;60.90;98331.94;7003750;28;20222;-77
2022/11/15 07:46:32;;;;;;;7.57;6.10;;;;;;;12.13;61.86;98334.06;7011855;28;20226;-80
2022/11/15 07:49:54;;;;;;;9.53;5.30;;;;;;;12.75;60.94;98308.47;7007834;28;20275;-79
2022/11/15 07:53:17;;;;;;;7.73;6.37;;;;;;;12.73;61.38;98327.63;6996041;28;20352;-78
2022/11/15 07:56:38;;;;;;;11.13;6.90;;;;;;;13.07;60.34;98316.13;6975700;28;20313;-77
2022/11/15 08:00:00;;;;;;;7.67;6.83;;;;;;;13.52;59.63;98316.38;6999830;28;20228;-77
2022/11/15 08:03:21;;;;;;;8.17;6.50;;;;;;;13.54;59.33;98309.69;7003558;28;20728;-77
2022/11/15 08:06:43;;;;;;;6.20;5.60;;;;;;;14.12;58.76;98306.88;7002040;28;20307;-77
2022/11/15 08:10:08;;;;;;;7.27;4.73;;;;;;;14.57;56.73;98273.38;7003701;28;20719;-77
2022/11/15 08:13:30;;;;;;;6.40;5.13;;;;;;;15.04;55.95;98292.97;7003486;28;20677;-78
2022/11/15 08:16:52;;;;;;;5.67;4.97;;;;;;;16.12;54.50;98296.78;7001888;28;20310;-78
2022/11/15 08:20:14;;;;;;;6.17;5.00;;;;;;;18.20;47.70;98271.69;7002706;28;20674;-78
2022/11/15 08:23:35;;;;;;;4.20;3.63;;;;;;;17.65;46.64;98289.66;7004042;28;20350;-78
2022/11/15 08:26:58;;;;;;;4.87;3.97;;;;;;;18.04;45.65;98288.28;7003147;28;20265;-78
2022/11/15 08:30:20;;;;;;;5.30;3.20;;;;;;;16.97;46.73;98267.81;7003810;28;20667;-78
2022/11/15 08:33:48;;;;;;;8.00;6.10;;;;;;;17.20;49.05;98286.53;7002722;28;20383;-78
2022/11/15 08:37:10;;;;;;;10.50;7.90;;;;;;;16.95;51.45;98265.38;7002783;28;20244;-78
2022/11/15 08:40:31;;;;;;;5.47;4.33;;;;;;;18.16;47.90;98240.56;7002692;28;20325;-78
2022/11/15 08:43:54;;;;;;;9.93;4.73;;;;;;;18.08;48.65;98256.63;7002825;28;20287;-78
2022/11/15 08:47:16;;;;;;;7.30;5.20;;;;;;;17.61;49.31;98264.00;7002739;28;20631;-78
2022/11/15 08:50:37;;;;;;;7.97;5.00;;;;;;;17.14;50.77;98250.28;7002231;28;20206;-77
2022/11/15 08:53:59;;;;;;;7.33;6.57;;;;;;;16.76;51.68;98252.38;7002695;28;20313;-78
2022/11/15 08:57:20;;;;;;;8.83;6.10;;;;;;;16.84;51.90;98260.09;6977250;28;20249;-78
2022/11/15 09:00:43;;;;;;;9.53;5.97;;;;;;;16.79;51.83;98228.19;6991558;28;20245;-78
2022/11/15 09:04:05;;;;;;;9.93;5.50;;;;;;;17.18;50.88;98245.13;7003067;28;20683;-78
2022/11/15 09:07:29;;;;;;;9.70;5.47;;;;;;;17.30;49.28;98257.50;7001041;28;20279;-77
2022/11/15 09:10:51;;;;;;;7.10;5.37;;;;;;;17.83;49.34;98254.63;7001815;28;20211;-78
2022/11/15 09:14:13;;;;;;;10.73;5.03;;;;;;;18.06;48.34;98237.00;7002396;28;20343;-79
2022/11/15 09:17:36;;;;;;;7.77;5.07;;;;;;;18.46;47.33;98246.16;7001588;28;20253;-78
2022/11/15 09:20:58;;;;;;;6.20;4.60;;;;;;;18.61;47.85;98229.81;7001231;28;20285;-77
2022/11/15 09:24:19;;;;;;;6.50;4.90;;;;;;;18.76;46.75;98212.66;7001206;28;20202;-78
2022/11/15 09:27:41;;;;;;;6.90;5.47;;;;;;;18.63;47.71;98229.56;7001281;28;20730;-78
2022/11/15 09:31:05;;;;;;;6.37;4.20;;;;;;;18.76;47.47;98221.66;7001902;28;20372;-77
2022/11/15 09:34:28;;;;;;;6.57;4.17;;;;;;;19.02;47.59;98223.31;7001431;28;20684;-77
2022/11/15 09:37:49;;;;;;;6.20;4.40;;;;;;;18.80;46.88;98232.88;7001248;28;20706;-77
2022/11/15 09:41:33;;;;;;;6.47;4.70;;;;;;;18.66;47.22;98221.66;7001544;28;20262;-77
2022/11/15 09:45:05;;;;;;;9.83;4.80;;;;;;;18.79;47.58;98220.28;7001678;28;20327;-77
2022/11/15 09:48:46;;;;;;;4.17;3.77;;;;;;;18.72;48.03;98219.72;7001662;28;20660;-77
2022/11/15 09:52:09;;;;;;;4.77;3.40;;;;;;;19.43;46.46;98214.03;6974200;28;20298;-77
2022/11/15 09:55:38;;;;;;;5.60;3.80;;;;;;;19.49;46.20;98215.66;6973387;28;20360;-77
2022/11/15 09:59:14;;;;;;;4.30;3.73;;;;;;;19.97;44.65;98214.97;6986437;28;20208;-77
2022/11/15 10:02:51;;;;;;;4.97;3.70;;;;;;;20.08;44.84;98207.56;7001206;28;20263;-77
2022/11/15 10:06:20;;;;;;;4.53;3.80;;;;;;;20.10;44.60;98205.41;7000549;28;20283;-76
2022/11/15 10:09:48;;;;;;;7.93;3.97;;;;;;;20.14;44.04;98198.25;7001665;28;20231;-77
2022/11/15 10:13:14;;;;;;;6.50;3.87;;;;;;;20.14;44.01;98196.34;7001335;28;20740;-78
2022/11/15 10:17:05;;;;;;;6.00;3.37;;;;;;;20.07;44.73;98190.34;6995443;28;20696;-78
2022/11/15 10:20:29;;;;;;;7.73;4.00;;;;;;;20.20;44.21;98197.94;7001051;28;20206;-78
2022/11/15 10:23:51;;;;;;;4.70;3.27;;;;;;;20.05;43.48;98195.22;7001592;28;20267;-78
2022/11/15 10:27:16;;;;;;;5.10;3.17;;;;;;;20.05;43.86;98200.72;7001660;28;20260;-77
2022/11/15 10:30:39;;;;;;;4.77;3.43;;;;;;;19.95;43.90;98189.00;7006102;28;20209;-79
2022/11/15 10:34:12;;;;;;;3.77;3.30;;;;;;;19.84;44.18;98128.03;7006124;28;20225;-78
2022/11/15 10:37:34;;;;;;;3.40;3.00;;;;;;;19.74;43.40;98180.03;7006361;28;20281;-76
2022/11/15 10:41:07;;;;;;;3.17;2.60;;;;;;;20.83;41.51;98155.91;7007565;28;20729;-79
2022/11/15 10:44:31;;;;;;;4.43;2.60;;;;;;;20.24;41.69;98159.88;7007246;28;20358;-78
2022/11/15 10:47:53;;;;;;;3.90;2.67;;;;;;;21.18;40.62;98147.41;7001436;28;20275;-79
2022/11/15 10:51:22;;;;;;;4.13;2.73;;;;;;;21.40;40.76;98132.09;7007356;28;20206;-78
2022/11/15 10:54:45;;;;;;;9.77;6.93;;;;;;;21.11;40.28;98135.94;7006897;28;20193;-78
2022/11/15 10:58:21;;;;;;;8.20;4.73;;;;;;;20.81;41.64;98118.94;7005758;28;20352;-79
2022/11/15 11:01:48;;;;;;;3.73;3.20;;;;;;;20.64;41.85;98107.59;7005578;28;20239;-79
2022/11/15 11:05:31;;;;;;;5.07;2.93;;;;;;;20.50;43.86;98134.78;6998700;28;20355;-78
2022/11/15 11:08:57;;;;;;;6.00;3.87;;;;;;;20.96;41.24;98130.63;7005470;28;20190;-76
2022/11/15 11:12:28;;;;;;;4.67;3.50;;;;;;;20.88;41.63;98135.88;7005310;28;20229;-77
2022/11/15 11:15:56;;;;;;;5.47;4.17;;;;;;;20.68;42.87;98128.63;7005016;28;20253;-78
2022/11/15 11:19:46;;;;;;;3.93;2.87;;;;;;;20.54;42.05;98129.56;7005909;28;20251;-77
2022/11/15 11:23:23;;;;;;;3.90;3.13;;;;;;;20.62;42.05;98128.94;6988431;28;20230;-78
2022/11/15 11:26:53;;;;;;;3.83;2.80;;;;;;;20.74;42.61;98129.44;7004397;28;20321;-77
2022/11/15 11:30:18;;;;;;;4.77;2.80;;;;;;;20.72;42.08;98137.09;7005040;28;20257;-78
2022/11/15 11:33:45;;;;;;;3.50;3.20;;;;;;;20.41;43.06;98136.47;7003657;28;20313;-77
2022/11/15 11:37:13;;;;;;;5.40;3.70;;;;;;;20.43;42.63;98128.81;7001339;28;20312;-77
2022/11/15 11:40:39;;;;;;;4.37;3.87;;;;;;;20.53;42.51;98123.28;7003944;28;20225;-77
2022/11/15 11:44:20;;;;;;;6.00;3.20;;;;;;;20.56;42.23;98116.38;7003929;28;20221;-77
2022/11/15 11:47:48;;;;;;;5.27;3.67;;;;;;;20.69;41.72;98116.56;6997606;28;20237;-79
2022/11/15 11:51:14;;;;;;;3.60;3.07;;;;;;;20.52;41.74;98105.19;7004465;28;20197;-77
2022/11/15 11:54:43;;;;;;;4.47;3.23;;;;;;;20.67;42.08;98110.56;6986507;28;20232;-77
2022/11/15 11:58:12;;;;;;;3.53;3.00;;;;;;;20.81;41.74;98102.50;6999250;28;20308;-77
2022/11/15 12:01:37;;;;;;;4.20;3.00;;;;;;;20.81;42.31;98091.53;7003936;28;20368;-78
2022/11/15 12:05:05;;;;;;;5.03;2.90;;;;;;;20.87;43.13;98079.44;7003774;28;20719;-78
2022/11/15 12:08:33;;;;;;;3.77;2.60;;;;;;;21.06;41.02;98083.09;7000572;28;20197;-78
2022/11/15 12:12:02;;;;;;;4.23;2.60;;;;;;;21.11;42.05;98075.63;6999731;28;20229;-78
2022/11/15 12:15:27;;;;;;;3.20;2.90;;;;;;;21.12;42.32;98071.00;6990652;28;20222;-78
2022/11/15 12:18:50;;;;;;;3.63;2.70;;;;;;;21.39;42.45;98056.41;7004456;28;20221;-78
2022/11/15 12:22:17;;;;;;;4.07;3.27;;;;;;;21.33;42.33;98053.22;7003029;28;20221;-78
2022/11/15 12:25:45;;;;;;;6.27;3.63;;;;;;;21.05;42.71;98048.59;7002620;28;20356;-78
2022/11/15 12:29:13;;;;;;;3.63;3.00;;;;;;;20.86;41.18;98056.69;7003399;28;20197;-78
2022/11/15 12:32:36;;;;;;;3.37;3.07;;;;;;;21.15;40.96;98043.81;7002988;28;20579;-77
2022/11/15 12:36:00;;;;;;;5.63;3.30;;;;;;;20.72;41.21;98022.84;7001883;28;20291;-78
2022/11/15 12:39:22;;;;;;;5.17;3.00;;;;;;;20.90;41.41;98062.44;6975469;28;20250;-78
2022/11/15 12:43:12;;;;;;;3.73;3.20;;;;;;;20.88;39.86;98039.97;6976022;28;20280;-77
2022/11/15 12:47:04;;;;;;;3.27;2.83;;;;;;;21.02;40.15;98062.84;6972407;28;20232;-77
2022/11/15 12:50:54;;;;;;;2.73;2.53;;;;;;;21.09;40.23;98058.69;7002978;28;21029;-77
2022/11/15 12:54:57;;;;;;;4.10;2.30;;;;;;;21.17;40.19;98054.47;7002418;28;20227;-77
2022/11/15 12:58:28;;;;;;;4.13;2.60;;;;;;;21.22;38.95;98021.53;6966667;28;20237;-77
2022/11/15 13:02:00;;;;;;;3.23;2.30;;;;;;;20.94;40.79;98033.34;7005486;28;20214;-77
2022/11/15 13:05:56;;;;;;;3.30;1.93;;;;;;;21.21;40.24;98037.16;7002244;28;20312;-77
2022/11/15 13:09:53;;;;;;;3.13;2.10;;;;;;;21.16;40.24;98039.94;7002558;28;20280;-76
2022/11/15 13:13:45;;;;;;;2.80;2.43;;;;;;;21.01;39.67;98028.34;6992655;28;20222;-77
2022/11/15 13:17:18;;;;;;;2.00;1.90;;;;;;;21.04;39.96;98023.09;6989391;28;20226;-77
2022/11/15 13:20:39;;;;;;;2.67;2.10;;;;;;;21.00;39.41;98018.50;7002632;28;20229;-77
2022/11/15 13:24:02;;;;;;;2.30;2.10;;;;;;;20.79;39.18;98009.63;7002553;28;20225;-77
2022/11/15 13:27:25;;;;;;;2.43;2.03;;;;;;;20.94;38.73;98004.00;7002225;28;20232;-77
2022/11/15 13:30:51;;;;;;;3.57;2.20;;;;;;;20.95;39.84;98004.84;6991275;28;20317;-77
2022/11/15 13:34:27;;;;;;;3.77;2.13;;;;;;;21.01;40.53;98000.94;7001624;28;20229;-77
2022/11/15 13:37:49;;;;;;;3.53;2.27;;;;;;;21.00;40.58;97991.91;7001152;28;20309;-77
2022/11/15 13:41:19;;;;;;;3.80;2.43;;;;;;;20.90;39.40;97992.00;7002120;28;20351;-78
2022/11/15 13:44:56;;;;;;;3.30;2.37;;;;;;;20.84;39.64;97985.72;7002151;28;20225;-77
2022/11/15 13:48:17;;;;;;;3.40;2.30;;;;;;;20.86;39.75;97981.91;7001545;28;20220;-77
2022/11/15 13:51:43;;;;;;;4.47;2.37;;;;;;;20.79;39.35;97968.53;7002711;28;20296;-77
2022/11/15 13:55:09;;;;;;;4.37;2.20;;;;;;;20.83;39.58;97947.69;7001555;28;20335;-77
2022/11/15 13:58:33;;;;;;;2.80;2.20;;;;;;;21.00;40.11;97967.25;7002066;28;20777;-78
2022/11/15 14:01:56;;;;;;;5.00;2.60;;;;;;;20.61;40.79;97958.31;7002143;28;20779;-77
2022/11/15 14:05:19;;;;;;;5.67;2.57;;;;;;;20.61;41.25;97961.06;7007197;28;20667;-77
2022/11/15 14:08:42;;;;;;;4.57;2.70;;;;;;;20.57;40.93;97959.19;7007373;28;20715;-77
2022/11/15 14:12:24;;;;;;;5.40;2.83;;;;;;;20.67;41.01;97952.47;7007055;28;20257;-77
2022/11/15 14:15:47;;;;;;;3.70;2.63;;;;;;;20.69;40.96;97938.50;7006476;28;20248;-77
2022/11/15 14:19:12;;;;;;;4.43;2.77;;;;;;;20.45;41.61;97920.44;7007344;28;20343;-77
2022/11/15 14:22:33;;;;;;;4.00;2.50;;;;;;;20.51;41.93;97930.22;6994255;28;20203;-77
2022/11/15 14:25:55;;;;;;;3.77;2.60;;;;;;;20.52;42.28;97927.16;6978502;28;20594;-77
2022/11/15 14:29:24;;;;;;;2.97;2.30;;;;;;;20.44;42.74;97918.78;6979262;28;20245;-78
2022/11/15 14:32:48;;;;;;;6.37;2.87;;;;;;;20.42;43.65;97910.88;6978186;28;20222;-77
2022/11/15 14:36:15;;;;;;;3.37;2.53;;;;;;;20.26;43.84;97911.28;6977870;28;20276;-77
2022/11/15 14:39:36;;;;;;;5.13;3.00;;;;;;;20.18;43.83;97912.75;6979238;28;20213;-77
2022/11/15 14:42:58;;;;;;;3.63;3.20;;;;;;;20.07;44.37;97911.22;6979611;28;20284;-77
2022/11/15 14:46:19;;;;;;;5.47;2.93;;;;;;;20.14;44.28;97898.00;6986119;28;20312;-77
2022/11/15 14:49:43;;;;;;;5.23;3.20;;;;;;;19.71;46.41;97909.00;7006504;28;20294;-77
2022/11/15 14:53:04;;;;;;;4.73;3.50;;;;;;;19.75;46.87;97899.13;7006324;28;20799;-77
2022/11/15 14:56:26;;;;;;;5.70;3.57;;;;;;;19.71;47.10;97909.00;7005481;28;20296;-77
2022/11/15 14:59:47;;;;;;;5.23;3.90;;;;;;;19.62;48.79;97894.28;6977903;28;20214;-77
2022/11/15 15:03:09;;;;;;;4.57;3.60;;;;;;;19.64;48.52;97892.91;6978418;28;20241;-77
2022/11/15 15:06:32;;;;;;;4.97;3.70;;;;;;;19.39;49.07;97884.88;6977686;28;20322;-78
2022/11/15 15:09:53;;;;;;;4.23;3.07;;;;;;;18.76;49.76;97847.50;6978504;28;20234;-77
2022/11/15 15:13:17;;;;;;;4.60;3.60;;;;;;;19.04;49.89;97876.84;6977845;28;20294;-78
2022/11/15 15:16:39;;;;;;;4.90;4.10;;;;;;;19.32;49.08;97858.97;6977193;28;20315;-77
2022/11/15 15:20:00;;;;;;;7.20;3.40;;;;;;;19.21;49.36;97865.63;6983947;28;20331;-77
2022/11/15 15:23:25;;;;;;;5.27;3.57;;;;;;;19.17;49.54;97859.03;7005585;28;20374;-78
2022/11/15 15:26:46;;;;;;;4.47;3.70;;;;;;;19.00;50.35;97851.22;7005306;28;20229;-78
2022/11/15 15:30:09;;;;;;;4.90;4.00;;;;;;;18.68;51.78;97858.19;6999814;28;20400;-77
2022/11/15 15:33:31;;;;;;;6.63;4.20;;;;;;;18.80;51.00;97845.84;7003278;28;20333;-77
2022/11/15 15:37:08;;;;;;;6.60;4.63;;;;;;;18.77;50.88;97838.22;7005014;28;20316;-77
2022/11/15 15:40:32;;;;;;;3.97;3.50;;;;;;;18.77;50.94;97845.59;7004731;28;20215;-77
2022/11/15 15:43:54;;;;;;;5.67;3.70;;;;;;;18.63;50.63;97826.25;7005952;28;20215;-77
2022/11/15 15:47:17;;;;;;;6.97;3.63;;;;;;;18.81;49.67;97835.75;7004799;28;20316;-78
2022/11/15 15:50:39;;;;;;;8.57;3.63;;;;;;;18.53;50.43;97834.53;7004654;28;20285;-78
2022/11/15 15:54:00;;;;;;;5.90;3.70;;;;;;;18.53;50.87;97817.31;7004499;28;20324;-77
2022/11/15 15:57:23;;;;;;;6.50;4.00;;;;;;;18.50;51.65;97817.84;7004331;28;20637;-77
2022/11/15 16:00:45;;;;;;;7.80;3.87;;;;;;;18.45;51.87;97813.25;7005950;28;20309;-77
2022/11/15 16:04:06;;;;;;;7.43;4.63;;;;;;;18.42;52.57;97815.72;7004227;28;20658;-77
2022/11/15 16:07:29;;;;;;;7.17;6.10;;;;;;;18.47;52.01;97805.59;7001276;28;20369;-77
2022/11/15 16:10:51;;;;;;;6.03;4.57;;;;;;;18.37;51.60;97813.81;7001668;28;20725;-77